createdAt,value
2019-03-30T00:01:19.402Z,7.66
2019-03-30T00:03:50.411Z,7.63
2019-03-30T00:06:21.161Z,7.56
2019-03-30T00:08:52.507Z,7.55
2019-03-30T00:11:22.901Z,7.55
2019-03-30T00:13:54.222Z,7.53
2019-03-30T00:16:24.355Z,7.50
2019-03-30T00:18:56.812Z,7.46
2019-03-30T00:21:27.099Z,7.42
2019-03-30T00:23:57.167Z,7.37
2019-03-30T00:26:29.182Z,7.33
2019-03-30T00:29:04.263Z,7.29
2019-03-30T00:31:35.090Z,6.57
2019-03-30T00:34:08.371Z,7.21
2019-03-30T00:36:38.760Z,7.20
2019-03-30T00:39:09.597Z,7.17
2019-03-30T00:41:40.107Z,7.15
2019-03-30T00:44:10.649Z,6.45
2019-03-30T00:46:40.986Z,7.16
2019-03-30T00:49:11.533Z,7.11
2019-03-30T00:51:41.575Z,7.10
2019-03-30T00:54:13.121Z,7.08
2019-03-30T00:56:45.397Z,7.02
2019-03-30T00:59:15.646Z,6.33
2019-03-30T01:01:46.910Z,7.00
2019-03-30T01:04:18.463Z,6.97
2019-03-30T01:06:48.746Z,6.94
2019-03-30T01:09:18.818Z,6.87
2019-03-30T01:11:49.584Z,6.08
2019-03-30T01:14:21.648Z,6.74
2019-03-30T01:16:51.843Z,6.74
2019-03-30T01:19:25.148Z,6.71
2019-03-30T01:21:56.301Z,6.03
2019-03-30T01:24:26.442Z,6.66
2019-03-30T01:26:59.323Z,6.67
2019-03-30T01:29:29.359Z,6.66
2019-03-30T01:32:00.511Z,6.66
2019-03-30T01:34:31.879Z,6.64
2019-03-30T01:37:03.226Z,6.66
2019-03-30T01:39:33.854Z,6.60
2019-03-30T01:42:04.270Z,6.56
2019-03-30T01:44:37.371Z,6.56
2019-03-30T01:47:07.408Z,6.56
2019-03-30T01:49:39.462Z,6.58
2019-03-30T01:52:09.652Z,6.57
2019-03-30T01:54:39.970Z,6.55
2019-03-30T01:57:10.456Z,6.53
2019-03-30T01:59:40.568Z,6.53
2019-03-30T02:02:11.050Z,6.53
2019-03-30T02:04:41.250Z,6.52
2019-03-30T02:07:14.077Z,6.49
2019-03-30T02:09:44.451Z,6.45
2019-03-30T02:12:17.566Z,6.45
2019-03-30T02:14:47.901Z,6.46
2019-03-30T02:17:20.103Z,6.46
2019-03-30T02:19:50.339Z,6.43
2019-03-30T02:22:20.993Z,6.46
2019-03-30T02:24:51.590Z,6.43
2019-03-30T02:27:21.839Z,6.37
2019-03-30T02:29:52.347Z,6.29
2019-03-30T02:32:26.896Z,6.28
2019-03-30T02:34:59.842Z,6.25
2019-03-30T02:37:30.270Z,6.24
2019-03-30T02:40:00.556Z,6.18
2019-03-30T02:42:33.822Z,6.19
2019-03-30T02:45:07.083Z,5.52
2019-03-30T02:47:37.226Z,6.10
2019-03-30T02:50:09.125Z,6.15
2019-03-30T02:52:39.290Z,6.16
2019-03-30T02:55:12.564Z,6.13
2019-03-30T02:57:41.706Z,6.15
2019-03-30T03:00:17.436Z,6.11
2019-03-30T03:02:49.675Z,6.10
2019-03-30T03:05:20.918Z,6.08
2019-03-30T03:07:51.000Z,5.44
2019-03-30T03:10:22.854Z,5.98
2019-03-30T03:12:53.263Z,5.95
2019-03-30T03:15:23.273Z,5.97
2019-03-30T03:17:53.671Z,5.98
2019-03-30T03:20:24.244Z,5.97
2019-03-30T03:22:57.394Z,5.98
2019-03-30T03:25:27.880Z,5.94
2019-03-30T03:27:58.073Z,5.21
2019-03-30T03:30:28.061Z,5.92
2019-03-30T03:32:58.225Z,5.88
2019-03-30T03:35:31.022Z,5.78
2019-03-30T03:38:01.411Z,5.78
2019-03-30T03:40:31.489Z,5.78
2019-03-30T03:43:01.589Z,5.66
2019-03-30T03:45:36.115Z,5.69
2019-03-30T03:48:06.261Z,5.77
2019-03-30T03:50:46.875Z,5.08
2019-03-30T03:53:18.635Z,5.80
2019-03-30T03:55:48.888Z,5.83
2019-03-30T03:58:20.917Z,5.83
2019-03-30T04:00:54.129Z,5.84
2019-03-30T04:03:26.701Z,5.83
2019-03-30T04:05:59.296Z,5.82
2019-03-30T04:08:34.103Z,5.84
2019-03-30T04:11:05.676Z,5.82
2019-03-30T04:13:38.786Z,5.83
2019-03-30T04:16:09.057Z,5.79
2019-03-30T04:18:39.695Z,5.78
2019-03-30T04:21:09.790Z,5.79
2019-03-30T04:23:39.825Z,5.80
2019-03-30T04:26:14.363Z,5.81
2019-03-30T04:28:44.424Z,5.78
2019-03-30T04:31:14.519Z,5.77
2019-03-30T04:33:44.567Z,5.72
2019-03-30T04:36:17.982Z,5.74
2019-03-30T04:38:48.100Z,5.73
2019-03-30T04:41:19.967Z,5.74
2019-03-30T04:43:51.031Z,5.73
2019-03-30T04:46:21.022Z,5.76
2019-03-30T04:48:51.122Z,5.74
2019-03-30T04:51:21.156Z,5.72
2019-03-30T04:53:52.890Z,5.72
2019-03-30T04:56:23.599Z,5.72
2019-03-30T04:58:54.751Z,5.70
2019-03-30T05:01:24.929Z,5.70
2019-03-30T05:03:56.123Z,5.68
2019-03-30T05:06:26.219Z,5.69
2019-03-30T05:08:56.273Z,5.70
2019-03-30T05:11:26.852Z,5.68
2019-03-30T05:13:59.582Z,5.69
2019-03-30T05:16:30.014Z,5.69
2019-03-30T05:19:00.062Z,5.70
2019-03-30T05:21:33.489Z,5.70
2019-03-30T05:24:03.666Z,5.73
2019-03-30T05:26:35.156Z,5.77
2019-03-30T05:29:05.562Z,5.75
2019-03-30T05:31:36.712Z,5.78
2019-03-30T05:34:08.119Z,5.82
2019-03-30T05:36:38.433Z,5.87
2019-03-30T05:39:08.547Z,5.88
2019-03-30T05:41:38.634Z,5.91
2019-03-30T05:44:09.035Z,5.92
2019-03-30T05:46:40.575Z,5.97
2019-03-30T05:49:10.653Z,6.00
2019-03-30T05:51:40.686Z,6.04
2019-03-30T05:54:10.711Z,6.09
2019-03-30T05:56:41.057Z,6.17
2019-03-30T05:59:12.551Z,6.21
2019-03-30T06:01:42.639Z,6.27
2019-03-30T06:04:13.059Z,6.33
2019-03-30T06:06:43.055Z,6.42
2019-03-30T06:09:14.838Z,6.51
2019-03-30T06:11:45.159Z,6.58
2019-03-30T06:14:15.294Z,6.67
2019-03-30T06:16:45.473Z,6.74
2019-03-30T06:19:15.543Z,6.80
2019-03-30T06:21:46.164Z,6.86
2019-03-30T06:24:16.308Z,6.96
2019-03-30T06:26:47.868Z,7.06
2019-03-30T06:29:21.857Z,7.14
2019-03-30T06:31:52.226Z,7.25
2019-03-30T06:34:25.464Z,7.37
2019-03-30T06:36:57.699Z,7.49
2019-03-30T06:39:30.859Z,7.61
2019-03-30T06:42:00.901Z,7.75
2019-03-30T06:44:31.757Z,7.86
2019-03-30T06:47:06.317Z,7.96
2019-03-30T06:49:36.396Z,7.41
2019-03-30T06:52:06.476Z,8.16
2019-03-30T06:54:36.664Z,7.76
2019-03-30T06:57:06.696Z,7.76
2019-03-30T06:59:36.710Z,8.59
2019-03-30T07:02:08.867Z,8.82
2019-03-30T07:04:38.964Z,8.82
2019-03-30T07:07:10.225Z,9.13
2019-03-30T07:09:41.248Z,9.21
2019-03-30T07:12:17.395Z,9.21
2019-03-30T07:14:49.507Z,9.41
2019-03-30T07:17:20.454Z,9.60
2019-03-30T07:19:54.063Z,9.75
2019-03-30T07:22:24.588Z,9.90
2019-03-30T07:24:57.367Z,10.06
2019-03-30T07:27:30.527Z,10.19
2019-03-30T07:30:00.565Z,10.34
2019-03-30T07:32:30.830Z,10.48
2019-03-30T07:35:01.247Z,10.62
2019-03-30T07:37:31.462Z,10.78
2019-03-30T07:40:04.559Z,10.90
2019-03-30T07:42:35.698Z,11.03
2019-03-30T07:45:06.347Z,11.17
2019-03-30T07:47:36.403Z,11.35
2019-03-30T07:50:06.727Z,11.57
2019-03-30T07:52:36.864Z,11.77
2019-03-30T07:55:10.186Z,11.96
2019-03-30T07:57:41.206Z,12.13
2019-03-30T08:00:16.071Z,12.31
2019-03-30T08:02:46.380Z,12.45
2019-03-30T08:05:18.240Z,12.65
2019-03-30T08:07:48.395Z,12.82
2019-03-30T08:10:19.094Z,12.88
2019-03-30T08:12:49.600Z,12.97
2019-03-30T08:15:20.132Z,13.14
2019-03-30T08:17:50.671Z,13.29
2019-03-30T08:20:22.198Z,13.41
2019-03-30T08:22:52.713Z,13.50
2019-03-30T08:25:24.445Z,13.57
2019-03-30T08:27:54.519Z,13.73
2019-03-30T08:30:24.572Z,13.90
2019-03-30T08:32:55.439Z,14.06
2019-03-30T08:35:28.388Z,14.20
2019-03-30T08:37:58.511Z,14.29
2019-03-30T08:40:29.104Z,14.35
2019-03-30T08:42:59.844Z,14.50
2019-03-30T08:45:32.520Z,14.66
2019-03-30T08:48:03.088Z,14.73
2019-03-30T08:50:35.079Z,14.32
2019-03-30T08:53:07.904Z,15.06
2019-03-30T08:55:40.905Z,15.11
2019-03-30T08:58:13.005Z,15.22
2019-03-30T09:00:45.753Z,15.45
2019-03-30T09:03:18.964Z,15.62
2019-03-30T09:05:51.432Z,15.73
2019-03-30T09:08:21.638Z,15.38
2019-03-30T09:10:56.972Z,15.80
2019-03-30T09:13:28.984Z,15.91
2019-03-30T09:15:59.835Z,15.99
2019-03-30T09:18:35.885Z,16.13
2019-03-30T09:21:11.375Z,16.29
2019-03-30T09:23:44.667Z,16.51
2019-03-30T09:26:16.815Z,16.57
2019-03-30T09:28:48.497Z,16.36
2019-03-30T09:31:20.595Z,16.53
2019-03-30T09:33:51.610Z,16.50
2019-03-30T09:36:22.504Z,16.60
2019-03-30T09:38:53.164Z,16.66
2019-03-30T09:41:27.146Z,16.85
2019-03-30T09:43:59.699Z,16.95
2019-03-30T09:46:30.185Z,16.05
2019-03-30T09:49:01.974Z,17.15
2019-03-30T09:51:33.445Z,16.93
2019-03-30T09:54:05.082Z,16.93
2019-03-30T09:56:35.709Z,16.94
2019-03-30T09:59:06.341Z,17.21
2019-03-30T10:01:37.752Z,17.42
2019-03-30T10:04:08.570Z,17.48
2019-03-30T10:06:40.553Z,17.54
2019-03-30T10:09:11.616Z,17.41
2019-03-30T10:11:42.964Z,17.41
2019-03-30T10:14:15.312Z,17.46
2019-03-30T10:16:50.475Z,17.51
2019-03-30T10:19:22.071Z,17.58
2019-03-30T10:21:52.929Z,17.57
2019-03-30T10:24:37.484Z,17.59
2019-03-30T10:26:56.436Z,17.65
2019-03-30T10:29:26.637Z,17.72
2019-03-30T10:32:04.785Z,17.59
2019-03-30T10:34:39.608Z,17.60
2019-03-30T10:37:18.267Z,17.59
2019-03-30T10:39:51.472Z,17.07
2019-03-30T10:42:26.825Z,17.68
2019-03-30T10:44:57.775Z,17.67
2019-03-30T10:47:29.847Z,17.79
2019-03-30T10:50:02.233Z,17.81
2019-03-30T10:52:36.742Z,17.61
2019-03-30T10:55:08.809Z,17.51
2019-03-30T10:57:40.708Z,18.10
2019-03-30T11:00:12.501Z,18.21
2019-03-30T11:02:44.697Z,18.18
2019-03-30T11:05:25.257Z,18.11
2019-03-30T11:07:57.589Z,18.28
2019-03-30T11:10:31.166Z,18.34
2019-03-30T11:13:01.964Z,18.20
2019-03-30T11:15:34.266Z,18.26
2019-03-30T11:18:06.023Z,18.33
2019-03-30T11:20:39.318Z,18.20
2019-03-30T11:23:17.148Z,18.22
2019-03-30T11:25:50.481Z,18.34
2019-03-30T11:28:23.716Z,18.44
2019-03-30T11:30:57.585Z,18.48
2019-03-30T11:33:30.637Z,18.65
2019-03-30T11:36:07.360Z,18.68
2019-03-30T11:38:44.932Z,18.55
2019-03-30T11:41:24.806Z,18.85
2019-03-30T11:43:54.886Z,19.01
2019-03-30T11:46:29.271Z,18.78
2019-03-30T11:49:01.643Z,18.96
2019-03-30T11:51:32.959Z,19.18
2019-03-30T11:54:05.442Z,19.18
2019-03-30T11:56:36.053Z,19.26
2019-03-30T11:59:07.449Z,19.28
2019-03-30T12:01:38.473Z,19.26
2019-03-30T12:04:09.349Z,19.31
2019-03-30T12:06:42.943Z,19.13
2019-03-30T12:09:14.896Z,19.45
2019-03-30T12:11:46.870Z,19.63
2019-03-30T12:14:18.486Z,19.59
2019-03-30T12:16:52.352Z,19.70
2019-03-30T12:19:22.513Z,19.87
2019-03-30T12:21:52.573Z,19.96
2019-03-30T12:24:22.730Z,20.03
2019-03-30T12:26:55.685Z,19.88
2019-03-30T12:29:26.196Z,20.01
2019-03-30T12:31:59.050Z,20.20
2019-03-30T12:34:29.266Z,20.22
2019-03-30T12:37:00.859Z,20.47
2019-03-30T12:39:31.142Z,20.60
2019-03-30T12:42:01.567Z,20.71
2019-03-30T12:44:32.190Z,20.77
2019-03-30T12:47:03.652Z,20.70
2019-03-30T12:49:34.688Z,20.53
2019-03-30T12:52:06.060Z,20.71
2019-03-30T12:54:39.112Z,20.48
2019-03-30T12:57:10.477Z,20.56
2019-03-30T12:59:41.556Z,20.70
2019-03-30T13:02:13.079Z,20.66
2019-03-30T13:04:45.074Z,20.63
2019-03-30T13:07:19.659Z,20.87
2019-03-30T13:09:49.773Z,21.11
2019-03-30T13:12:20.305Z,21.29
2019-03-30T13:14:50.533Z,21.37
2019-03-30T13:17:23.691Z,21.42
2019-03-30T13:20:00.879Z,21.53
2019-03-30T13:22:33.884Z,21.46
2019-03-30T13:25:07.991Z,21.50
2019-03-30T13:27:38.954Z,21.26
2019-03-30T13:30:12.665Z,20.87
2019-03-30T13:32:43.339Z,20.88
2019-03-30T13:35:13.995Z,21.06
2019-03-30T13:37:45.462Z,21.46
2019-03-30T13:40:16.305Z,21.78
2019-03-30T13:42:47.551Z,21.94
2019-03-30T13:45:17.838Z,21.97
2019-03-30T13:47:49.422Z,21.85
2019-03-30T13:50:19.602Z,22.05
2019-03-30T13:52:49.891Z,22.21
2019-03-30T13:55:22.825Z,22.26
2019-03-30T13:57:54.028Z,22.37
2019-03-30T14:00:24.580Z,22.28
2019-03-30T14:02:55.128Z,22.10
2019-03-30T14:05:25.338Z,22.11
2019-03-30T14:07:55.418Z,22.10
2019-03-30T14:10:25.518Z,21.94
2019-03-30T14:12:55.587Z,22.05
2019-03-30T14:15:25.609Z,21.85
2019-03-30T14:17:55.930Z,21.99
2019-03-30T14:20:29.211Z,21.95
2019-03-30T14:23:01.127Z,22.06
2019-03-30T14:25:32.301Z,22.04
2019-03-30T14:28:03.067Z,22.10
2019-03-30T14:30:33.327Z,22.04
2019-03-30T14:33:03.428Z,21.84
2019-03-30T14:35:34.131Z,21.70
2019-03-30T14:38:04.490Z,21.90
2019-03-30T14:40:34.711Z,22.02
2019-03-30T14:43:05.159Z,21.80
2019-03-30T14:45:35.394Z,21.85
2019-03-30T14:48:05.644Z,21.90
2019-03-30T14:50:37.587Z,21.86
2019-03-30T14:53:08.091Z,21.38
2019-03-30T14:55:39.697Z,21.84
2019-03-30T14:58:11.338Z,21.98
2019-03-30T15:00:42.809Z,22.07
2019-03-30T15:03:14.781Z,21.89
2019-03-30T15:05:45.970Z,21.81
2019-03-30T15:08:17.797Z,21.97
2019-03-30T15:10:48.232Z,21.94
2019-03-30T15:13:20.119Z,21.37
2019-03-30T15:15:53.322Z,21.83
2019-03-30T15:18:23.499Z,21.75
2019-03-30T15:20:53.593Z,21.73
2019-03-30T15:23:27.171Z,21.93
2019-03-30T15:25:57.369Z,22.04
2019-03-30T15:28:27.406Z,22.08
2019-03-30T15:30:57.763Z,22.03
2019-03-30T15:33:27.831Z,21.92
2019-03-30T15:35:57.915Z,21.95
2019-03-30T15:38:28.171Z,21.90
2019-03-30T15:41:01.392Z,21.84
2019-03-30T15:43:38.657Z,21.83
2019-03-30T15:46:07.030Z,21.89
2019-03-30T15:48:38.332Z,21.81
2019-03-30T15:51:09.588Z,21.74
2019-03-30T15:53:39.741Z,21.79
2019-03-30T15:56:09.955Z,21.79
2019-03-30T15:58:40.530Z,21.72
2019-03-30T16:01:10.582Z,21.74
2019-03-30T16:03:43.511Z,21.76
2019-03-30T16:06:14.285Z,21.74
2019-03-30T16:08:44.475Z,21.79
2019-03-30T16:11:14.725Z,21.83
2019-03-30T16:13:45.389Z,21.81
2019-03-30T16:16:15.587Z,21.83
2019-03-30T16:18:45.598Z,21.80
2019-03-30T16:21:16.359Z,21.70
2019-03-30T16:23:46.423Z,21.64
2019-03-30T16:26:16.595Z,21.53
2019-03-30T16:28:46.775Z,21.48
2019-03-30T16:31:18.470Z,21.30
2019-03-30T16:33:48.486Z,21.20
2019-03-30T16:36:22.701Z,21.13
2019-03-30T16:38:57.324Z,21.09
2019-03-30T16:41:28.236Z,20.98
2019-03-30T16:43:59.463Z,20.72
2019-03-30T16:46:29.894Z,20.63
2019-03-30T16:49:01.194Z,20.42
2019-03-30T16:51:31.375Z,19.73
2019-03-30T16:54:01.534Z,20.11
2019-03-30T16:56:31.602Z,19.83
2019-03-30T16:59:05.524Z,19.60
2019-03-30T17:01:35.899Z,19.81
2019-03-30T17:04:06.308Z,19.91
2019-03-30T17:06:36.423Z,19.83
2019-03-30T17:09:08.301Z,19.76
2019-03-30T17:11:38.448Z,19.59
2019-03-30T17:14:10.490Z,19.62
2019-03-30T17:16:40.606Z,19.44
2019-03-30T17:19:10.733Z,19.28
2019-03-30T17:21:42.677Z,19.09
2019-03-30T17:24:16.250Z,19.06
2019-03-30T17:26:46.732Z,18.97
2019-03-30T17:29:21.069Z,18.29
2019-03-30T17:31:51.229Z,18.82
2019-03-30T17:34:21.428Z,18.69
2019-03-30T17:36:52.982Z,18.56
2019-03-30T17:39:29.292Z,18.50
2019-03-30T17:41:59.564Z,18.40
2019-03-30T17:44:33.845Z,18.24
2019-03-30T17:47:06.889Z,18.11
2019-03-30T17:49:37.413Z,17.95
2019-03-30T17:52:08.814Z,17.84
2019-03-30T17:54:39.981Z,17.66
2019-03-30T17:57:11.467Z,17.54
2019-03-30T17:59:41.595Z,17.45
2019-03-30T18:02:11.866Z,17.36
2019-03-30T18:04:42.060Z,17.29
2019-03-30T18:07:13.884Z,17.22
2019-03-30T18:09:44.421Z,17.20
2019-03-30T18:12:20.374Z,17.16
2019-03-30T18:14:49.534Z,17.10
2019-03-30T18:17:19.875Z,17.01
2019-03-30T18:19:50.696Z,16.95
2019-03-30T18:22:20.865Z,16.86
2019-03-30T18:24:51.101Z,16.76
2019-03-30T18:27:22.525Z,16.66
2019-03-30T18:29:53.077Z,16.53
2019-03-30T18:32:25.093Z,16.46
2019-03-30T18:34:54.554Z,16.39
2019-03-30T18:37:27.792Z,16.30
2019-03-30T18:39:58.802Z,16.24
2019-03-30T18:42:29.207Z,16.21
2019-03-30T18:45:03.775Z,16.16
2019-03-30T18:47:34.555Z,16.08
2019-03-30T18:50:06.191Z,16.03
2019-03-30T18:52:37.674Z,15.95
2019-03-30T18:55:08.028Z,15.95
2019-03-30T18:57:38.351Z,15.86
2019-03-30T19:00:09.101Z,15.80
2019-03-30T19:02:39.305Z,15.73
2019-03-30T19:05:09.486Z,15.71
2019-03-30T19:07:39.843Z,15.64
2019-03-30T19:10:10.433Z,15.57
2019-03-30T19:12:40.652Z,15.50
2019-03-30T19:15:11.161Z,15.50
2019-03-30T19:17:41.321Z,15.40
2019-03-30T19:20:12.345Z,15.36
2019-03-30T19:22:42.778Z,15.28
2019-03-30T19:25:16.279Z,15.21
2019-03-30T19:27:46.621Z,15.13
2019-03-30T19:30:20.688Z,15.04
2019-03-30T19:32:51.052Z,14.98
2019-03-30T19:35:22.608Z,14.92
2019-03-30T19:37:53.819Z,14.91
2019-03-30T19:40:25.653Z,14.80
2019-03-30T19:42:56.238Z,14.74
2019-03-30T19:45:26.440Z,14.66
2019-03-30T19:47:57.702Z,14.62
2019-03-30T19:50:29.243Z,14.56
2019-03-30T19:52:59.331Z,14.41
2019-03-30T19:55:29.564Z,14.34
2019-03-30T19:58:03.827Z,14.32
2019-03-30T20:00:33.985Z,14.24
2019-03-30T20:03:04.264Z,14.21
2019-03-30T20:05:35.592Z,14.16
2019-03-30T20:08:11.898Z,13.42
2019-03-30T20:10:38.473Z,14.09
2019-03-30T20:13:09.331Z,14.05
2019-03-30T20:15:40.256Z,13.92
2019-03-30T20:18:10.958Z,13.96
2019-03-30T20:20:41.419Z,13.92
2019-03-30T20:23:12.643Z,13.93
2019-03-30T20:25:42.841Z,13.89
2019-03-30T20:28:13.226Z,13.92
2019-03-30T20:30:43.297Z,13.94
2019-03-30T20:33:13.529Z,13.86
2019-03-30T20:35:44.131Z,13.84
2019-03-30T20:38:19.270Z,13.81
2019-03-30T20:40:49.590Z,13.77
2019-03-30T20:43:22.819Z,13.74
2019-03-30T20:45:53.007Z,13.76
2019-03-30T20:48:23.361Z,13.77
2019-03-30T20:50:53.785Z,13.78
2019-03-30T20:53:27.322Z,13.83
2019-03-30T20:56:00.557Z,13.87
2019-03-30T20:58:32.781Z,13.93
2019-03-30T21:01:02.934Z,13.94
2019-03-30T21:03:34.954Z,13.82
2019-03-30T21:06:05.597Z,13.82
2019-03-30T21:08:37.059Z,13.82
2019-03-30T21:11:08.568Z,13.47
2019-03-30T21:13:40.264Z,12.97
2019-03-30T21:16:10.540Z,13.48
2019-03-30T21:18:40.940Z,13.63
2019-03-30T21:21:11.727Z,13.76
2019-03-30T21:23:42.006Z,13.86
2019-03-30T21:26:12.479Z,13.89
2019-03-30T21:28:42.930Z,13.86
2019-03-30T21:31:14.147Z,13.78
2019-03-30T21:33:44.259Z,13.76
2019-03-30T21:36:14.756Z,13.72
2019-03-30T21:38:44.781Z,13.62
2019-03-30T21:41:17.827Z,13.52
2019-03-30T21:43:48.014Z,13.45
2019-03-30T21:46:18.063Z,13.39
2019-03-30T21:48:52.946Z,13.34
2019-03-30T21:51:26.206Z,13.27
2019-03-30T21:53:56.268Z,13.19
2019-03-30T21:56:26.647Z,13.15
2019-03-30T21:58:59.966Z,13.11
2019-03-30T22:01:30.211Z,13.07
2019-03-30T22:04:01.989Z,13.00
2019-03-30T22:06:32.551Z,12.94
2019-03-30T22:09:06.901Z,12.90
2019-03-30T22:11:37.116Z,12.89
2019-03-30T22:14:07.257Z,12.86
2019-03-30T22:16:38.918Z,12.82
2019-03-30T22:19:08.989Z,12.74
2019-03-30T22:21:39.331Z,12.76
2019-03-30T22:24:09.609Z,12.69
2019-03-30T22:26:41.923Z,12.65
2019-03-30T22:29:13.737Z,12.62
2019-03-30T22:31:44.568Z,12.60
2019-03-30T22:34:14.998Z,12.55
2019-03-30T22:36:45.427Z,12.55
2019-03-30T22:39:15.557Z,12.54
2019-03-30T22:41:45.659Z,12.46
2019-03-30T22:44:20.411Z,12.45
2019-03-30T22:46:50.518Z,12.41
2019-03-30T22:49:21.249Z,12.34
2019-03-30T22:51:51.979Z,12.34
2019-03-30T22:54:22.048Z,12.29
2019-03-30T22:56:55.264Z,12.18
2019-03-30T22:59:25.313Z,12.17
2019-03-30T23:01:55.646Z,12.15
2019-03-30T23:04:26.184Z,12.09
2019-03-30T23:06:58.542Z,12.00
2019-03-30T23:09:28.824Z,11.91
2019-03-30T23:12:01.784Z,11.91
2019-03-30T23:14:34.643Z,11.92
2019-03-30T23:17:08.338Z,11.90
2019-03-30T23:19:38.449Z,11.88
2019-03-30T23:22:08.580Z,11.80
2019-03-30T23:24:42.178Z,11.77
2019-03-30T23:27:12.450Z,11.65
2019-03-30T23:29:42.546Z,11.55
2019-03-30T23:32:15.914Z,11.59
2019-03-30T23:34:48.150Z,11.54
2019-03-30T23:37:19.511Z,11.52
2019-03-30T23:39:49.569Z,11.50
2019-03-30T23:42:20.181Z,11.44
2019-03-30T23:44:50.334Z,11.44
2019-03-30T23:47:20.592Z,11.44
2019-03-30T23:49:51.517Z,11.43
2019-03-30T23:52:22.165Z,11.38
2019-03-30T23:54:56.081Z,11.39
2019-03-30T23:57:26.187Z,11.35
2019-03-30T23:59:56.291Z,11.30
